Erie, PA

9:00 PM EDT on September 03, 2015 (GMT -0400)
E 38TH & LAKE PLEASANT | | Change Station
CLOSE
Current Station
Personal Weather Station
Location: Erie, PA
Elevation: 840 ft
Nearby Weather Stations

Elev 840 ft 42.11 °N, 80.05 °W | Updated 5 minutes ago

Partly Cloudy
Partly Cloudy
74.1 °F
Feels Like 72 °F
N
0.0
Wind Variable Wind from SW

Today
High -- | Low -- °F
--% Chance of Precip.
Yesterday
High -- | Low -- °F
Precip. -- in
6:47 AM 7:51 PM
Waning Gibbous, 65% visible
Pressure 29.94 in
Visibility 10.0 miles
Clouds Clear
Heat Index 72 °F
Dew Point 72 °F
Humidity 92%
Rainfall 0.00 in
Snow Depth Not available.
UV 0 out of 12
Pollen 10.30 out of 12
Air Quality Not available.
Flu Activity Not available.
METAR KERI 040051Z 24003KT 10SM CLR 23/20 A2995 RMK AO2 SLP136 T02330200
Pressure 29.94 in
Visibility 10.0 miles
Clouds Clear
Heat Index 72 °F
Dew Point 72 °F
Humidity 92%
Rainfall 0.00 in
Snow Depth Not available.
UV 0 out of 12
Pollen 10.30 out of 12
Air Quality Not available.
Flu Activity Not available.
METAR KERI 040051Z 24003KT 10SM CLR 23/20 A2995 RMK AO2 SLP136 T02330200

10-Day Weather Forecast

×

Almanac

Astronomy

Sep. 03, 2015 Rise Set
Actual Time
Civil Twilight
Nautical Twilight
Astronomical Twilight
Moon
Length of Visible Light
Length of Day
Tomorrow will be .
, % of the Moon is Illuminated

Today's Extremes

State Highs State Lows

Community

WunderPhotos

Upload Photos

1,852,081 photos uploaded!

WunderBlogs® & News

Nearby

Air Quality

  Air Quality AQ Index Pollutant
Not available.

Snow Depth

Station Depth Elevation

Earthquake Activity

City Distance Mag. Time & Date
Minimum magnitude displayed is 2.5.

Coastal Water Temperatures

Place Temperature

Stations

Nearby Weather Stations

Station Location Temp. Windchill Dew Point Humidity Wind Precip. Elev Updated Type